Time;durP1;ratioP1;P1;durP2;ratioP2;P2;SDS_P1;SDS_P2;PMS_P1;PMS_P2;Temp;Humidity;BMP_temperature;BMP_pressure;BME280_temperature;BME280_humidity;BME280_pressure;Samples;Min_cycle;Max_cycle;Signal;HPM_P1;HPM_P2
2023/11/12 00:01:05;;;;;;;15.38;5.93;;;5.60;99.90;;;;;;4968721;28;20546;-47
2023/11/12 00:03:31;;;;;;;7.22;5.97;;;5.60;99.90;;;;;;4969208;28;20027;-46
2023/11/12 00:05:57;;;;;;;6.22;5.63;;;5.60;99.90;;;;;;4969440;28;20149;-52
2023/11/12 00:08:22;;;;;;;8.98;5.57;;;5.60;99.90;;;;;;4969842;28;20034;-49
2023/11/12 00:10:48;;;;;;;8.68;5.93;;;5.60;99.90;;;;;;4984023;28;20027;-45
2023/11/12 00:13:13;;;;;;;7.35;5.45;;;5.50;99.90;;;;;;4968951;28;20054;-47
2023/11/12 00:15:40;;;;;;;8.07;6.13;;;5.50;99.90;;;;;;4969539;28;20019;-51
2023/11/12 00:18:06;;;;;;;8.68;4.90;;;5.50;99.90;;;;;;4969174;28;20104;-50
2023/11/12 00:20:33;;;;;;;36.60;19.25;;;5.60;99.90;;;;;;4969123;28;20023;-46
2023/11/12 00:22:59;;;;;;;10.95;6.22;;;5.60;99.90;;;;;;4969193;28;20030;-47
2023/11/12 00:25:25;;;;;;;7.57;6.50;;;5.60;99.90;;;;;;4968847;28;20042;-47
2023/11/12 00:27:50;;;;;;;9.52;5.50;;;5.60;99.90;;;;;;4970523;28;20368;-51
2023/11/12 00:30:16;;;;;;;8.32;6.30;;;5.60;99.90;;;;;;4972119;28;20023;-50
2023/11/12 00:32:41;;;;;;;9.57;6.00;;;5.50;99.90;;;;;;4972347;28;20506;-50
2023/11/12 00:35:07;;;;;;;11.82;6.47;;;5.50;99.90;;;;;;4972297;28;20440;-47
2023/11/12 00:37:32;;;;;;;7.78;5.93;;;5.40;99.90;;;;;;4972333;28;20042;-50
2023/11/12 00:39:58;;;;;;;7.22;5.18;;;5.40;99.90;;;;;;4972039;28;20486;-49
2023/11/12 00:42:23;;;;;;;10.85;6.38;;;5.30;99.90;;;;;;4972086;28;20027;-48
2023/11/12 00:44:49;;;;;;;7.05;6.35;;;5.30;99.90;;;;;;4972101;28;20501;-47
2023/11/12 00:47:14;;;;;;;10.30;5.70;;;5.20;99.90;;;;;;4972064;28;20026;-50
2023/11/12 00:49:40;;;;;;;9.15;6.07;;;5.10;99.90;;;;;;4972229;28;20035;-48
2023/11/12 00:52:06;;;;;;;10.70;5.63;;;5.10;99.90;;;;;;4972088;28;20316;-52
2023/11/12 00:54:32;;;;;;;10.52;5.88;;;5.10;99.90;;;;;;4972199;28;20161;-50
2023/11/12 00:56:58;;;;;;;11.18;6.03;;;5.10;99.90;;;;;;4972139;28;20474;-50
2023/11/12 00:59:23;;;;;;;10.75;6.28;;;5.00;99.90;;;;;;4971960;28;20019;-49
2023/11/12 01:01:49;;;;;;;7.55;6.13;;;5.10;99.90;;;;;;4971714;28;20490;-47
2023/11/12 01:04:15;;;;;;;7.03;6.30;;;5.00;99.90;;;;;;4972111;28;20027;-50
2023/11/12 01:06:41;;;;;;;8.10;5.88;;;5.00;99.90;;;;;;4971857;28;20506;-50
2023/11/12 01:09:08;;;;;;;10.43;6.70;;;5.00;99.90;;;;;;4972121;28;20030;-47
2023/11/12 01:11:34;;;;;;;8.52;6.78;;;5.00;99.90;;;;;;4971742;28;20050;-51
2023/11/12 01:13:59;;;;;;;8.60;6.60;;;5.00;99.90;;;;;;4971798;28;20435;-52
2023/11/12 01:16:25;;;;;;;10.50;6.72;;;5.00;99.90;;;;;;4971558;28;20039;-50
2023/11/12 01:18:51;;;;;;;8.02;6.55;;;5.00;99.90;;;;;;4971797;28;20035;-48
2023/11/12 01:21:17;;;;;;;13.38;6.40;;;5.00;99.90;;;;;;4971343;28;20462;-50
2023/11/12 01:23:42;;;;;;;8.88;7.00;;;5.00;99.90;;;;;;4971566;28;20023;-49
2023/11/12 01:26:08;;;;;;;9.32;6.38;;;5.00;99.90;;;;;;4971306;28;20104;-53
2023/11/12 01:28:34;;;;;;;9.63;6.80;;;5.00;99.90;;;;;;4971316;28;20022;-49
2023/11/12 01:31:02;;;;;;;10.02;6.90;;;5.00;99.90;;;;;;4971398;28;20026;-51
2023/11/12 01:33:28;;;;;;;7.88;7.05;;;5.00;99.90;;;;;;4971429;28;20502;-50
2023/11/12 01:35:57;;;;;;;9.35;7.45;;;5.00;99.90;;;;;;4971327;28;20027;-53
2023/11/12 01:38:23;;;;;;;9.65;7.22;;;5.00;99.90;;;;;;4971302;28;20019;-49
2023/11/12 01:40:48;;;;;;;11.57;7.50;;;5.00;99.90;;;;;;4971352;28;20019;-51
2023/11/12 01:43:18;;;;;;;11.27;8.10;;;4.90;99.90;;;;;;4971166;28;20513;-49
2023/11/12 01:45:44;;;;;;;9.60;7.45;;;5.00;99.90;;;;;;4971271;28;20033;-50
2023/11/12 01:48:13;;;;;;;8.48;6.70;;;5.10;99.90;;;;;;4971175;28;20026;-49
2023/11/12 01:50:39;;;;;;;9.88;6.78;;;5.10;99.90;;;;;;4970972;28;20015;-52
2023/11/12 01:53:05;;;;;;;10.88;6.65;;;5.20;99.90;;;;;;4971279;28;20101;-47
2023/11/12 01:55:32;;;;;;;9.80;8.48;;;5.30;99.90;;;;;;4971027;28;20743;-50
2023/11/12 01:57:58;;;;;;;15.55;8.65;;;5.30;99.90;;;;;;4970852;28;20508;-49
2023/11/12 02:00:24;;;;;;;9.25;7.43;;;5.30;99.90;;;;;;4970910;28;20105;-51
2023/11/12 02:02:52;;;;;;;10.77;7.60;;;5.30;99.90;;;;;;4970874;28;20505;-49
2023/11/12 02:05:18;;;;;;;16.98;7.55;;;5.30;99.90;;;;;;4970928;28;20102;-49
2023/11/12 02:07:45;;;;;;;12.95;8.30;;;5.30;99.90;;;;;;4970937;28;20106;-51
2023/11/12 02:10:15;;;;;;;9.68;8.38;;;5.40;99.90;;;;;;4970746;28;20030;-49
2023/11/12 02:12:47;;;;;;;11.50;8.48;;;5.40;99.90;;;;;;4970641;28;20053;-50
2023/11/12 02:15:17;;;;;;;13.75;7.80;;;5.80;99.90;;;;;;4970631;28;20023;-50
2023/11/12 02:17:43;;;;;;;12.40;8.65;;;5.40;99.90;;;;;;4970861;28;20023;-51
2023/11/12 02:20:16;;;;;;;12.15;8.75;;;5.40;99.90;;;;;;4971723;28;20042;-47
2023/11/12 02:22:43;;;;;;;14.73;8.43;;;5.40;99.90;;;;;;4970728;28;20031;-48
2023/11/12 02:25:09;;;;;;;10.07;8.27;;;5.40;99.90;;;;;;4970480;28;20084;-47
2023/11/12 02:27:35;;;;;;;10.10;8.23;;;5.40;99.90;;;;;;4970547;28;20047;-47
2023/11/12 02:30:01;;;;;;;10.82;8.48;;;5.50;99.90;;;;;;4971335;28;20113;-48
2023/11/12 02:32:31;;;;;;;12.77;8.93;;;5.40;99.90;;;;;;4971787;28;20023;-52
2023/11/12 02:34:57;;;;;;;10.75;8.57;;;5.40;99.90;;;;;;4954618;28;20031;-54
2023/11/12 02:37:24;;;;;;;12.60;9.15;;;5.40;99.90;;;;;;4971525;28;20023;-53
2023/11/12 02:39:50;;;;;;;13.25;8.90;;;5.40;99.90;;;;;;4971486;28;20057;-49
2023/11/12 02:42:17;;;;;;;17.92;9.48;;;5.40;99.90;;;;;;4970356;28;20038;-48
2023/11/12 02:44:43;;;;;;;11.57;8.65;;;5.40;99.90;;;;;;4970412;28;20025;-47
2023/11/12 02:47:09;;;;;;;12.13;8.38;;;5.40;99.90;;;;;;4970351;28;20421;-48
2023/11/12 02:50:01;;;;;;;11.75;8.32;;;5.40;99.90;;;;;;4969814;28;20037;-47
2023/11/12 02:52:26;;;;;;;13.38;8.30;;;5.40;99.90;;;;;;4970267;28;20033;-45
2023/11/12 02:54:53;;;;;;;17.13;10.23;;;5.40;99.90;;;;;;4970193;28;20117;-48
2023/11/12 02:57:21;;;;;;;12.15;8.85;;;5.40;99.90;;;;;;4970237;28;20474;-47
2023/11/12 02:59:47;;;;;;;13.50;9.73;;;5.40;99.90;;;;;;4970331;28;20084;-48
2023/11/12 03:02:13;;;;;;;14.60;10.18;;;5.40;99.90;;;;;;4969975;28;20033;-50
2023/11/12 03:04:39;;;;;;;11.20;7.78;;;5.30;99.90;;;;;;4969986;28;20026;-47
2023/11/12 03:07:04;;;;;;;12.82;9.85;;;5.30;99.90;;;;;;4970028;28;20046;-47
2023/11/12 03:09:30;;;;;;;11.25;9.02;;;5.40;99.90;;;;;;4969997;28;20435;-47
2023/11/12 03:11:56;;;;;;;13.27;9.68;;;5.30;99.90;;;;;;4969808;28;20031;-51
2023/11/12 03:14:22;;;;;;;17.95;9.05;;;5.40;99.90;;;;;;4969873;28;20114;-49
2023/11/12 03:16:48;;;;;;;14.38;9.68;;;5.40;99.90;;;;;;4969814;28;20464;-49
2023/11/12 03:19:14;;;;;;;12.68;9.20;;;5.40;99.90;;;;;;4969817;28;20027;-46
2023/11/12 03:21:40;;;;;;;11.63;8.75;;;5.50;99.90;;;;;;4969666;28;20036;-47
2023/11/12 03:24:08;;;;;;;11.07;8.25;;;5.50;99.90;;;;;;4969677;28;20474;-52
2023/11/12 03:26:34;;;;;;;11.88;9.43;;;5.60;99.90;;;;;;4969681;28;20141;-50
2023/11/12 03:28:59;;;;;;;11.80;8.63;;;5.60;99.90;;;;;;4969964;28;20519;-49
2023/11/12 03:31:25;;;;;;;15.32;9.10;;;5.70;99.90;;;;;;4969569;28;20109;-52
2023/11/12 03:33:51;;;;;;;10.70;8.15;;;5.60;99.90;;;;;;4969612;28;20035;-51
2023/11/12 03:36:18;;;;;;;13.25;8.63;;;5.60;99.90;;;;;;4969600;28;20027;-49
2023/11/12 03:38:43;;;;;;;13.00;9.20;;;5.60;99.90;;;;;;4952411;28;20117;-48
2023/11/12 03:41:13;;;;;;;14.13;7.95;;;5.60;99.90;;;;;;4969318;28;20160;-50
2023/11/12 03:43:39;;;;;;;15.10;8.50;;;5.60;99.90;;;;;;4969734;28;20023;-49
2023/11/12 03:46:06;;;;;;;10.40;7.82;;;5.60;99.90;;;;;;4952111;28;20543;-49
2023/11/12 03:48:32;;;;;;;12.02;8.18;;;5.60;99.90;;;;;;4969802;28;20023;-48
2023/11/12 03:50:57;;;;;;;14.50;8.25;;;5.60;99.90;;;;;;4969532;28;20106;-51
2023/11/12 03:53:23;;;;;;;15.35;8.20;;;5.60;99.90;;;;;;4969717;28;20030;-48
2023/11/12 03:55:49;;;;;;;9.25;7.93;;;5.60;99.90;;;;;;4969493;28;20058;-47
2023/11/12 03:58:14;;;;;;;11.23;8.05;;;5.80;99.90;;;;;;4969478;28;20076;-46
2023/11/12 04:00:40;;;;;;;8.55;7.60;;;5.90;99.90;;;;;;4952041;28;20102;-48
2023/11/12 04:03:06;;;;;;;9.25;8.10;;;5.90;99.90;;;;;;4971341;28;20027;-49
2023/11/12 04:05:32;;;;;;;11.20;8.40;;;6.00;99.90;;;;;;4972778;28;20026;-47
2023/11/12 04:07:57;;;;;;;10.30;7.88;;;6.00;99.90;;;;;;4972582;28;20073;-49
2023/11/12 04:10:23;;;;;;;9.75;8.23;;;6.10;99.90;;;;;;4972419;28;20061;-48
2023/11/12 04:12:48;;;;;;;11.32;8.02;;;6.10;99.90;;;;;;4972640;28;20035;-49
2023/11/12 04:15:14;;;;;;;11.13;8.40;;;6.10;99.90;;;;;;4972424;28;20068;-53
2023/11/12 04:17:39;;;;;;;10.80;8.30;;;6.10;99.90;;;;;;4972346;28;20112;-47
2023/11/12 04:20:06;;;;;;;8.88;7.90;;;6.10;99.90;;;;;;4972317;28;20074;-47
2023/11/12 04:22:32;;;;;;;10.93;8.70;;;6.00;99.90;;;;;;4972394;28;20126;-47
2023/11/12 04:24:58;;;;;;;12.25;8.07;;;6.10;99.90;;;;;;4972193;28;20110;-48
2023/11/12 04:27:23;;;;;;;11.05;7.85;;;6.10;99.90;;;;;;4972378;28;20027;-49
2023/11/12 04:29:49;;;;;;;9.90;8.25;;;6.00;99.90;;;;;;4972472;28;20030;-50
2023/11/12 04:32:15;;;;;;;8.43;7.22;;;5.90;99.90;;;;;;4972078;28;20420;-49
2023/11/12 04:34:41;;;;;;;9.25;7.25;;;5.90;99.90;;;;;;4972381;28;20130;-49
2023/11/12 04:37:06;;;;;;;9.48;7.38;;;5.90;99.90;;;;;;4972223;28;20023;-48
2023/11/12 04:39:32;;;;;;;9.68;7.82;;;5.80;99.90;;;;;;4972153;28;20035;-48
2023/11/12 04:41:57;;;;;;;10.90;8.45;;;5.90;99.90;;;;;;4972293;28;20057;-47
2023/11/12 04:44:23;;;;;;;9.85;7.43;;;5.80;99.90;;;;;;4971935;28;20031;-52
2023/11/12 04:46:49;;;;;;;9.55;7.50;;;5.80;99.90;;;;;;4971946;28;20019;-45
2023/11/12 04:49:14;;;;;;;9.98;8.10;;;5.80;99.90;;;;;;4972154;28;20486;-50
2023/11/12 04:51:39;;;;;;;10.93;8.55;;;5.80;99.90;;;;;;4971900;28;20133;-49
2023/11/12 04:54:06;;;;;;;10.63;8.00;;;5.80;99.90;;;;;;4971969;28;20035;-49
2023/11/12 04:56:32;;;;;;;13.98;7.57;;;5.90;99.90;;;;;;4971773;28;20509;-47
2023/11/12 04:58:57;;;;;;;8.98;7.38;;;5.80;99.90;;;;;;4971909;28;20102;-51
2023/11/12 05:01:24;;;;;;;12.18;8.30;;;5.80;99.90;;;;;;4971570;28;20393;-47
2023/11/12 05:03:49;;;;;;;10.48;7.78;;;5.80;99.90;;;;;;4972051;28;20496;-53
2023/11/12 05:06:15;;;;;;;10.00;8.45;;;5.80;99.90;;;;;;4971655;28;20038;-47
2023/11/12 05:08:41;;;;;;;9.48;8.13;;;5.80;99.90;;;;;;4971662;28;20027;-49
2023/11/12 05:11:08;;;;;;;10.27;8.43;;;5.80;99.90;;;;;;4971608;28;20047;-47
2023/11/12 05:13:35;;;;;;;10.80;8.05;;;5.80;99.90;;;;;;4971103;28;20400;-49
2023/11/12 05:16:01;;;;;;;12.40;8.60;;;5.80;99.90;;;;;;4971689;28;20023;-47
2023/11/12 05:18:26;;;;;;;11.00;8.73;;;5.80;99.90;;;;;;4971961;28;20023;-49
2023/11/12 05:20:52;;;;;;;18.60;9.85;;;5.90;99.90;;;;;;4971299;28;20026;-46
2023/11/12 05:23:18;;;;;;;10.38;9.05;;;5.90;99.90;;;;;;4971348;28;20034;-48
2023/11/12 05:25:45;;;;;;;10.60;9.25;;;5.90;99.90;;;;;;4971353;28;20030;-50
2023/11/12 05:28:10;;;;;;;12.98;9.63;;;6.00;99.90;;;;;;4971405;28;20023;-49
2023/11/12 05:30:36;;;;;;;10.45;9.20;;;6.00;99.90;;;;;;4971279;28;20023;-51
2023/11/12 05:33:02;;;;;;;10.98;8.63;;;6.00;99.90;;;;;;4971367;28;20031;-48
2023/11/12 05:35:27;;;;;;;12.32;8.80;;;6.00;99.90;;;;;;4971499;28;20076;-47
2023/11/12 05:37:54;;;;;;;19.27;9.35;;;6.00;99.90;;;;;;4971193;28;20102;-50
2023/11/12 05:40:19;;;;;;;14.85;8.88;;;6.00;99.90;;;;;;4971140;28;20023;-52
2023/11/12 05:42:45;;;;;;;13.68;9.50;;;6.00;99.90;;;;;;4953953;28;20454;-49
2023/11/12 05:45:12;;;;;;;12.15;9.80;;;6.00;99.90;;;;;;4971089;28;20117;-48
2023/11/12 05:47:37;;;;;;;15.57;10.43;;;6.00;99.90;;;;;;4971206;28;20093;-49
2023/11/12 05:50:03;;;;;;;16.63;9.68;;;6.00;99.90;;;;;;4986013;28;20047;-48
2023/11/12 05:52:29;;;;;;;12.82;10.63;;;6.00;99.90;;;;;;4971156;28;20058;-50
2023/11/12 05:54:54;;;;;;;12.60;10.38;;;6.00;99.90;;;;;;4970927;28;20486;-51
2023/11/12 05:57:20;;;;;;;16.90;10.02;;;6.00;99.90;;;;;;4970775;28;20027;-49
2023/11/12 05:59:45;;;;;;;14.75;10.18;;;6.00;99.90;;;;;;4971001;28;20038;-53
2023/11/12 06:02:11;;;;;;;11.05;9.43;;;6.00;99.90;;;;;;4970705;28;20031;-47
2023/11/12 06:04:36;;;;;;;14.18;9.38;;;6.00;99.90;;;;;;4971325;28;20062;-47
2023/11/12 06:07:02;;;;;;;12.98;10.10;;;6.00;99.90;;;;;;4970813;28;20461;-48
2023/11/12 06:09:27;;;;;;;12.75;10.15;;;6.00;99.90;;;;;;4970925;28;20459;-50
2023/11/12 06:11:53;;;;;;;10.98;9.40;;;6.00;99.90;;;;;;4971102;28;20043;-47
2023/11/12 06:14:22;;;;;;;13.50;9.63;;;6.00;99.90;;;;;;4971244;28;20037;-56
2023/11/12 06:16:48;;;;;;;11.45;9.93;;;6.10;99.90;;;;;;4953683;28;20030;-49
2023/11/12 06:19:13;;;;;;;13.25;11.70;;;6.00;99.90;;;;;;4970843;28;20087;-50
2023/11/12 06:21:39;;;;;;;16.10;10.93;;;6.10;99.90;;;;;;4970348;28;20027;-48
2023/11/12 06:24:06;;;;;;;12.27;10.15;;;6.10;99.90;;;;;;4970375;28;20046;-49
2023/11/12 06:26:34;;;;;;;15.43;12.00;;;6.10;99.90;;;;;;4969950;28;20038;-51
2023/11/12 06:29:00;;;;;;;14.38;10.55;;;6.10;99.90;;;;;;4971009;28;20109;-48
2023/11/12 06:31:26;;;;;;;13.68;9.95;;;6.10;99.90;;;;;;4970520;28;20511;-52
2023/11/12 06:33:51;;;;;;;13.77;11.52;;;6.20;99.90;;;;;;4970579;28;20045;-48
2023/11/12 06:36:17;;;;;;;13.00;10.13;;;6.30;99.90;;;;;;4970672;28;20031;-56
2023/11/12 06:38:43;;;;;;;16.23;10.85;;;6.40;99.90;;;;;;4970955;28;20026;-50
2023/11/12 06:41:12;;;;;;;20.10;12.98;;;6.50;99.90;;;;;;4970493;28;20038;-50
2023/11/12 06:43:38;;;;;;;15.38;11.60;;;6.40;99.90;;;;;;4970462;28;20055;-51
2023/11/12 06:46:07;;;;;;;16.58;11.95;;;6.40;99.90;;;;;;4970282;28;20078;-50
2023/11/12 06:48:33;;;;;;;19.02;11.77;;;6.30;99.90;;;;;;4970474;28;20030;-49
2023/11/12 06:50:59;;;;;;;12.32;10.27;;;6.30;99.90;;;;;;4971363;28;20023;-49
2023/11/12 06:53:24;;;;;;;16.38;11.77;;;6.20;99.90;;;;;;4970326;28;20062;-51
2023/11/12 06:55:50;;;;;;;15.20;11.57;;;6.20;99.90;;;;;;4970143;28;20117;-51
2023/11/12 06:58:15;;;;;;;15.63;10.85;;;6.20;99.90;;;;;;4970183;28;20367;-54
2023/11/12 07:00:41;;;;;;;18.00;11.43;;;6.20;99.90;;;;;;4970113;28;20027;-51
2023/11/12 07:03:07;;;;;;;19.27;12.70;;;6.20;99.90;;;;;;4970331;28;20027;-52
2023/11/12 07:05:32;;;;;;;16.70;12.05;;;6.20;99.90;;;;;;4970009;28;20394;-49
2023/11/12 07:07:58;;;;;;;17.95;12.63;;;6.20;99.90;;;;;;4970773;28;20062;-52
2023/11/12 07:10:24;;;;;;;18.25;13.73;;;6.40;99.90;;;;;;4969978;28;20023;-49
2023/11/12 07:12:49;;;;;;;18.48;12.73;;;6.50;99.90;;;;;;4970478;28;20084;-49
2023/11/12 07:15:15;;;;;;;18.17;12.93;;;6.60;99.90;;;;;;4971097;28;20031;-51
2023/11/12 07:17:40;;;;;;;18.95;13.95;;;6.50;99.90;;;;;;4970302;28;20049;-52
2023/11/12 07:20:09;;;;;;;19.02;13.05;;;6.40;99.90;;;;;;4970037;28;20027;-52
2023/11/12 07:22:36;;;;;;;21.98;14.52;;;6.30;99.90;;;;;;4969914;28;20516;-50
2023/11/12 07:25:02;;;;;;;20.67;14.52;;;6.30;99.90;;;;;;4970318;28;20045;-54
2023/11/12 07:27:27;;;;;;;17.73;13.48;;;6.40;99.90;;;;;;4970150;28;20122;-49
2023/11/12 07:29:53;;;;;;;19.65;14.35;;;6.40;99.90;;;;;;4970086;28;20530;-54
2023/11/12 07:32:20;;;;;;;20.25;14.23;;;6.40;99.90;;;;;;4969908;28;20031;-53
2023/11/12 07:34:47;;;;;;;22.15;14.90;;;6.50;99.90;;;;;;4969826;28;20023;-50
2023/11/12 07:37:13;;;;;;;20.67;13.98;;;6.50;99.90;;;;;;4971810;28;20057;-51
2023/11/12 07:39:40;;;;;;;24.23;15.02;;;6.40;99.90;;;;;;4973167;28;20063;-53
2023/11/12 07:42:06;;;;;;;17.75;12.55;;;6.40;99.90;;;;;;4973267;28;20050;-49
2023/11/12 07:44:31;;;;;;;19.10;12.68;;;6.50;99.90;;;;;;4973161;28;20067;-51
2023/11/12 07:46:57;;;;;;;19.25;13.88;;;6.50;99.90;;;;;;4973578;28;20058;-51
2023/11/12 07:49:23;;;;;;;16.17;12.70;;;6.50;99.90;;;;;;4955727;28;20363;-48
2023/11/12 07:51:50;;;;;;;18.65;13.90;;;6.60;99.90;;;;;;4973157;28;20031;-51
2023/11/12 07:54:17;;;;;;;17.92;13.60;;;6.60;99.90;;;;;;4972900;28;20461;-50
2023/11/12 07:56:43;;;;;;;19.02;12.85;;;6.70;99.90;;;;;;4972747;28;20406;-51
2023/11/12 07:59:08;;;;;;;17.95;13.77;;;6.60;99.90;;;;;;4973236;28;20027;-53
2023/11/12 08:01:34;;;;;;;18.15;13.57;;;6.60;99.90;;;;;;4972823;28;20034;-54
2023/11/12 08:03:59;;;;;;;22.35;13.98;;;6.70;99.90;;;;;;4972983;28;20031;-50
2023/11/12 08:06:26;;;;;;;16.83;13.10;;;6.60;99.90;;;;;;4955402;28;20019;-50
2023/11/12 08:08:52;;;;;;;15.38;12.35;;;6.60;99.90;;;;;;4972810;28;20023;-48
2023/11/12 08:11:18;;;;;;;14.90;11.93;;;6.60;99.90;;;;;;4972848;28;20101;-57
2023/11/12 08:13:44;;;;;;;13.65;11.68;;;6.60;99.90;;;;;;4973003;28;20063;-49
2023/11/12 08:16:09;;;;;;;16.27;13.00;;;6.60;99.90;;;;;;4972964;28;20019;-51
2023/11/12 08:18:36;;;;;;;15.15;12.02;;;6.70;99.90;;;;;;4989663;28;20026;-49
2023/11/12 08:21:01;;;;;;;22.10;13.38;;;6.70;99.90;;;;;;5014815;28;20016;-51
2023/11/12 08:23:27;;;;;;;14.55;12.10;;;6.70;99.90;;;;;;5018224;28;20030;-48
2023/11/12 08:25:53;;;;;;;16.67;12.02;;;6.80;99.90;;;;;;5047934;28;20037;-49
2023/11/12 08:28:19;;;;;;;19.63;12.65;;;6.80;99.90;;;;;;5074868;28;20487;-49
2023/11/12 08:30:45;;;;;;;15.05;11.60;;;6.80;99.90;;;;;;5074528;28;20033;-54
2023/11/12 08:33:10;;;;;;;16.15;12.23;;;6.90;99.90;;;;;;5074895;28;20419;-51
2023/11/12 08:35:36;;;;;;;17.63;11.95;;;6.90;99.90;;;;;;5021538;28;20070;-49
2023/11/12 08:38:02;;;;;;;17.50;12.75;;;6.90;99.90;;;;;;4973237;28;20440;-50
2023/11/12 08:40:27;;;;;;;17.80;13.05;;;6.90;99.90;;;;;;4972318;28;20453;-51
2023/11/12 08:42:53;;;;;;;17.17;12.60;;;7.00;99.90;;;;;;4971988;28;20605;-51
2023/11/12 08:45:19;;;;;;;15.35;12.25;;;7.00;99.90;;;;;;4972226;28;20106;-48
2023/11/12 08:47:45;;;;;;;21.10;12.88;;;7.00;99.90;;;;;;4971233;28;20109;-51
2023/11/12 08:50:11;;;;;;;22.30;12.57;;;7.00;99.90;;;;;;4971956;28;20101;-48
2023/11/12 08:52:37;;;;;;;14.82;11.70;;;7.10;99.90;;;;;;4971990;28;20026;-48
2023/11/12 08:55:05;;;;;;;16.98;12.35;;;7.00;99.90;;;;;;4972067;28;20039;-48
2023/11/12 08:57:31;;;;;;;14.20;11.93;;;7.10;99.90;;;;;;4971899;28;20035;-47
2023/11/12 08:59:56;;;;;;;20.23;13.43;;;7.10;99.90;;;;;;4971950;28;20034;-49
2023/11/12 09:02:22;;;;;;;16.08;12.07;;;7.10;99.90;;;;;;4977529;28;20034;-46
2023/11/12 09:04:47;;;;;;;16.88;12.18;;;7.10;99.90;;;;;;4991919;28;20482;-51
2023/11/12 09:07:13;;;;;;;20.98;13.00;;;7.20;99.90;;;;;;4991394;28;20027;-48
2023/11/12 09:09:38;;;;;;;15.23;12.25;;;7.20;99.90;;;;;;4990472;28;20034;-48
2023/11/12 09:12:04;;;;;;;16.40;12.57;;;7.20;99.90;;;;;;4991842;28;20034;-46
2023/11/12 09:14:30;;;;;;;16.20;12.45;;;7.10;99.90;;;;;;4986039;28;20035;-47
2023/11/12 09:16:55;;;;;;;13.20;10.90;;;7.20;99.90;;;;;;4991609;28;20037;-48
2023/11/12 09:19:21;;;;;;;15.15;12.32;;;7.20;99.90;;;;;;4992022;28;20102;-50
2023/11/12 09:21:46;;;;;;;15.35;12.10;;;7.40;99.90;;;;;;4986826;28;20398;-48
2023/11/12 09:24:13;;;;;;;18.92;12.43;;;7.50;99.90;;;;;;4971484;28;20035;-49
2023/11/12 09:26:38;;;;;;;18.17;12.75;;;7.70;99.90;;;;;;4971627;28;20015;-50
2023/11/12 09:29:04;;;;;;;16.70;12.60;;;7.90;99.90;;;;;;4971418;28;20034;-50
2023/11/12 09:31:30;;;;;;;15.40;12.48;;;8.00;99.90;;;;;;4971455;28;20404;-47
2023/11/12 09:33:55;;;;;;;13.55;9.73;;;8.10;99.90;;;;;;4971469;28;20030;-49
2023/11/12 09:36:21;;;;;;;17.20;11.20;;;8.10;99.90;;;;;;4971059;28;20023;-50
2023/11/12 09:38:47;;;;;;;17.67;11.45;;;8.20;99.90;;;;;;4971972;28;20058;-47
2023/11/12 09:41:13;;;;;;;16.67;10.15;;;8.30;99.90;;;;;;4971193;28;20536;-50
2023/11/12 09:43:40;;;;;;;20.13;11.27;;;8.40;99.90;;;;;;4955099;28;20023;-48
2023/11/12 09:46:09;;;;;;;15.57;10.85;;;8.70;99.90;;;;;;4971772;28;20027;-50
2023/11/12 09:48:39;;;;;;;16.00;10.77;;;9.30;99.90;;;;;;4971196;28;20023;-47
2023/11/12 09:51:06;;;;;;;14.57;10.55;;;9.70;99.90;;;;;;4971383;28;20374;-46
2023/11/12 09:53:37;;;;;;;15.73;10.60;;;10.20;99.90;;;;;;4971157;28;20027;-49
2023/11/12 09:56:08;;;;;;;15.48;9.07;;;10.60;99.90;;;;;;4971175;28;20035;-49
2023/11/12 09:58:37;;;;;;;12.32;8.95;;;10.90;99.90;;;;;;4973513;28;20026;-47
2023/11/12 10:01:05;;;;;;;16.80;9.80;;;11.40;99.90;;;;;;4989656;28;20379;-52
2023/11/12 10:03:30;;;;;;;15.75;10.45;;;11.80;99.90;;;;;;4956757;28;20030;-48
2023/11/12 10:05:56;;;;;;;17.35;10.50;;;11.60;99.90;;;;;;4990494;28;20042;-49
2023/11/12 10:08:23;;;;;;;13.95;10.38;;;11.20;99.90;;;;;;4988668;28;20036;-47
2023/11/12 10:10:48;;;;;;;12.20;10.35;;;10.80;99.90;;;;;;4990296;28;20530;-47
2023/11/12 10:13:14;;;;;;;16.45;10.60;;;10.50;99.90;;;;;;4983434;28;20113;-48
2023/11/12 10:15:40;;;;;;;19.95;10.85;;;10.20;99.90;;;;;;4970484;28;20106;-51
2023/11/12 10:18:06;;;;;;;15.02;9.07;;;9.90;99.90;;;;;;4983871;28;20461;-49
2023/11/12 10:20:40;;;;;;;12.65;9.98;;;9.70;99.90;;;;;;4989838;28;20057;-49
2023/11/12 10:23:18;;;;;;;16.17;10.30;;;9.60;99.90;;;;;;4989938;28;20033;-50
2023/11/12 10:25:48;;;;;;;17.30;10.75;;;9.60;99.90;;;;;;4990030;28;20049;-50
2023/11/12 10:28:14;;;;;;;18.42;10.15;;;9.50;99.90;;;;;;4972316;28;20050;-54
2023/11/12 10:30:40;;;;;;;14.55;9.93;;;9.30;99.90;;;;;;4970087;28;20428;-51
2023/11/12 10:33:27;;;;;;;13.20;9.65;;;9.60;99.90;;;;;;4971154;28;20043;-49
2023/11/12 10:35:53;;;;;;;14.57;10.38;;;9.80;99.90;;;;;;4950889;28;20031;-52
2023/11/12 10:38:18;;;;;;;13.88;10.00;;;9.90;99.90;;;;;;4980994;28;20026;-50
2023/11/12 10:41:02;;;;;;;44.70;26.23;;;10.10;99.90;;;;;;4987536;28;20041;-54
2023/11/12 10:43:31;;;;;;;16.73;12.15;;;10.20;99.90;;;;;;4981848;28;20054;-50
2023/11/12 10:46:06;;;;;;;64.15;35.05;;;10.40;99.90;;;;;;4987736;28;20030;-47
2023/11/12 10:48:37;;;;;;;17.48;10.40;;;10.40;99.90;;;;;;4989207;28;20104;-51
2023/11/12 10:51:05;;;;;;;16.38;9.48;;;10.50;99.90;;;;;;4984518;28;20050;-54
2023/11/12 10:53:31;;;;;;;16.38;9.30;;;10.50;99.90;;;;;;4981406;28;20030;-52
2023/11/12 10:56:00;;;;;;;15.07;9.18;;;10.40;99.90;;;;;;4989453;28;20030;-55
2023/11/12 10:58:28;;;;;;;14.85;8.70;;;10.40;99.90;;;;;;4986470;28;20023;-55
2023/11/12 11:00:58;;;;;;;11.43;8.70;;;10.50;99.90;;;;;;4981490;28;20498;-54
2023/11/12 11:03:29;;;;;;;13.63;8.95;;;10.60;99.90;;;;;;4966597;28;20027;-49
2023/11/12 11:05:56;;;;;;;13.80;8.98;;;10.70;99.90;;;;;;4970033;28;20023;-49
2023/11/12 11:08:25;;;;;;;13.55;9.52;;;10.80;99.90;;;;;;4970321;28;20106;-49
2023/11/12 11:10:52;;;;;;;12.60;8.18;;;10.80;99.90;;;;;;4969111;28;20019;-54
2023/11/12 11:13:18;;;;;;;14.98;9.10;;;10.80;99.90;;;;;;4970086;28;20435;-50
2023/11/12 11:15:44;;;;;;;12.23;8.25;;;10.90;99.90;;;;;;4970065;28;20073;-54
2023/11/12 11:18:30;;;;;;;11.90;9.02;;;10.80;99.90;;;;;;4969584;28;20224;-50
2023/11/12 11:21:15;;;;;;;12.90;7.90;;;10.80;99.90;;;;;;4969805;28;20034;-53
2023/11/12 11:23:52;;;;;;;12.93;8.52;;;10.80;99.90;;;;;;4971112;28;20418;-52
2023/11/12 11:26:26;;;;;;;11.98;7.93;;;10.80;99.90;;;;;;4969560;28;20041;-53
2023/11/12 11:29:10;;;;;;;12.90;7.47;;;10.70;99.90;;;;;;4969537;28;20031;-53
2023/11/12 11:31:37;;;;;;;13.82;6.97;;;10.60;99.90;;;;;;4969439;28;20023;-53
2023/11/12 11:34:06;;;;;;;9.55;7.10;;;10.40;99.90;;;;;;4952123;28;20088;-50
2023/11/12 11:36:32;;;;;;;11.57;7.80;;;10.50;99.90;;;;;;4961226;28;20030;-52
2023/11/12 11:39:08;;;;;;;11.50;7.60;;;10.40;99.90;;;;;;4988771;28;20101;-53
2023/11/12 11:42:10;;;;;;;11.48;8.60;;;10.40;99.90;;;;;;4988978;28;20057;-51
2023/11/12 11:44:41;;;;;;;12.25;7.75;;;10.40;99.90;;;;;;4986680;28;20486;-53
2023/11/12 11:47:09;;;;;;;13.50;7.30;;;10.40;99.90;;;;;;4994434;28;20032;-51
2023/11/12 11:49:35;;;;;;;13.10;7.85;;;10.40;99.90;;;;;;4960911;28;20516;-50
2023/11/12 11:52:01;;;;;;;14.85;9.60;;;10.30;99.90;;;;;;4974276;28;20038;-52
2023/11/12 11:54:28;;;;;;;30.75;19.90;;;10.20;99.90;;;;;;4983066;28;20141;-54
2023/11/12 11:57:04;;;;;;;20.83;10.65;;;10.20;99.90;;;;;;4986371;28;20450;-52
2023/11/12 11:59:34;;;;;;;12.15;7.18;;;10.30;99.90;;;;;;4979938;28;20535;-52
2023/11/12 12:02:00;;;;;;;10.68;6.80;;;10.40;99.90;;;;;;4953954;28;20043;-52
2023/11/12 12:04:27;;;;;;;9.25;6.93;;;10.50;99.90;;;;;;4969295;28;20102;-52
2023/11/12 12:06:52;;;;;;;9.40;5.82;;;10.50;99.90;;;;;;4969551;28;20157;-50
2023/11/12 12:09:18;;;;;;;11.35;5.82;;;10.50;99.90;;;;;;4970466;28;20105;-53
2023/11/12 12:11:48;;;;;;;8.13;6.13;;;10.50;99.90;;;;;;4969178;28;20027;-51
2023/11/12 12:14:17;;;;;;;11.93;6.53;;;10.50;99.90;;;;;;4969627;28;20394;-52
2023/11/12 12:16:43;;;;;;;7.93;6.00;;;10.40;99.90;;;;;;4976962;28;20043;-52
2023/11/12 12:19:15;;;;;;;13.40;6.78;;;10.40;99.90;;;;;;4979671;28;20091;-51
2023/11/12 12:21:51;;;;;;;11.10;7.60;;;10.60;99.90;;;;;;4969432;28;20026;-51
2023/11/12 12:24:19;;;;;;;10.57;7.50;;;10.70;99.90;;;;;;4987763;28;20033;-49
2023/11/12 12:26:45;;;;;;;11.20;6.78;;;10.70;99.90;;;;;;4987487;28;20027;-55
2023/11/12 12:29:28;;;;;;;13.23;7.38;;;10.60;99.90;;;;;;4991810;28;20036;-53
2023/11/12 12:31:55;;;;;;;10.82;7.32;;;10.70;99.90;;;;;;4987993;28;20041;-50
2023/11/12 12:34:24;;;;;;;12.07;7.05;;;10.70;99.90;;;;;;4971427;28;20030;-50
2023/11/12 12:37:07;;;;;;;9.32;6.03;;;10.70;99.90;;;;;;4959769;28;20035;-52
2023/11/12 12:40:10;;;;;;;8.35;5.97;;;10.60;99.90;;;;;;4972341;28;20030;-52
2023/11/12 12:42:36;;;;;;;9.95;6.07;;;10.50;99.90;;;;;;4972353;28;20054;-49